createdAt,value
2019-02-09T00:00:01.995Z,97920.50
2019-02-09T00:03:17.143Z,97920.77
2019-02-09T00:06:47.638Z,97933.97
2019-02-09T00:10:02.894Z,97910.98
2019-02-09T00:13:18.143Z,97922.72
2019-02-09T00:16:33.598Z,97924.06
2019-02-09T00:19:49.858Z,97919.55
2019-02-09T00:23:05.125Z,97898.14
2019-02-09T00:26:20.371Z,97887.98
2019-02-09T00:29:35.421Z,97868.84
2019-02-09T00:32:50.978Z,97865.28
2019-02-09T00:36:07.042Z,97855.32
2019-02-09T00:39:22.294Z,97856.33
2019-02-09T00:42:37.547Z,97858.16
2019-02-09T00:45:52.695Z,97845.45
2019-02-09T00:49:07.952Z,97838.00
2019-02-09T00:52:23.199Z,97830.73
2019-02-09T00:55:38.962Z,97849.09
2019-02-09T00:58:54.107Z,97871.38
2019-02-09T01:02:09.554Z,97860.16
2019-02-09T01:05:36.642Z,97862.31
2019-02-09T01:08:51.934Z,97854.98
2019-02-09T01:12:07.186Z,97860.30
2019-02-09T01:15:22.399Z,97860.23
2019-02-09T01:18:37.587Z,97866.73
2019-02-09T01:21:53.142Z,97871.90
2019-02-09T01:25:08.406Z,97870.94
2019-02-09T01:28:23.850Z,97875.13
2019-02-09T01:31:39.206Z,97866.30
2019-02-09T01:34:54.795Z,97849.07
2019-02-09T01:38:09.886Z,97856.46
2019-02-09T01:41:25.165Z,97855.67
2019-02-09T01:44:40.718Z,97851.67
2019-02-09T01:47:56.179Z,97855.98
2019-02-09T01:51:11.423Z,97835.45
2019-02-09T01:54:26.674Z,97847.36
2019-02-09T01:57:42.027Z,97850.88
2019-02-09T02:00:57.691Z,97857.30
2019-02-09T02:04:13.247Z,97866.97
2019-02-09T02:07:28.703Z,97864.64
2019-02-09T02:10:44.155Z,97865.07
2019-02-09T02:14:00.624Z,97851.75
2019-02-09T02:17:16.183Z,97857.86
2019-02-09T02:20:31.578Z,97862.47
2019-02-09T02:23:47.002Z,97853.06
2019-02-09T02:27:02.476Z,97861.46
2019-02-09T02:30:22.923Z,97879.56
2019-02-09T02:33:37.772Z,97879.08
2019-02-09T02:36:53.117Z,97876.75
2019-02-09T02:40:08.329Z,97861.95
2019-02-09T02:43:23.725Z,97868.84
2019-02-09T02:46:39.097Z,97843.05
2019-02-09T02:49:54.326Z,97782.95
2019-02-09T02:53:09.902Z,97766.39
2019-02-09T02:56:25.242Z,97765.81
2019-02-09T02:59:40.386Z,97798.02
2019-02-09T03:02:56.396Z,97780.17
2019-02-09T03:06:11.643Z,97797.71
2019-02-09T03:09:27.073Z,97794.58
2019-02-09T03:12:42.444Z,97791.64
2019-02-09T03:15:58.067Z,97786.94
2019-02-09T03:19:13.327Z,97779.21
2019-02-09T03:22:28.684Z,97770.95
2019-02-09T03:25:44.053Z,97784.80
2019-02-09T03:28:59.183Z,97777.84
2019-02-09T03:32:14.433Z,97785.01
2019-02-09T03:35:30.191Z,97763.34
2019-02-09T03:38:45.654Z,97785.23
2019-02-09T03:42:01.209Z,97786.98
2019-02-09T03:45:19.106Z,97787.20
2019-02-09T03:48:34.573Z,97794.70
2019-02-09T03:51:50.385Z,97800.55
2019-02-09T03:55:05.382Z,97812.38
2019-02-09T03:58:20.826Z,97798.44
2019-02-09T04:01:36.272Z,97806.30
2019-02-09T04:04:51.340Z,97805.89
2019-02-09T04:08:06.658Z,97808.27
2019-02-09T04:11:22.150Z,97814.82
2019-02-09T04:14:37.511Z,97823.74
2019-02-09T04:17:52.732Z,97834.21
2019-02-09T04:21:07.671Z,97832.41
2019-02-09T04:24:23.158Z,97847.52
2019-02-09T04:27:39.311Z,97867.92
2019-02-09T04:31:04.987Z,97873.64
2019-02-09T04:34:12.282Z,97890.22
2019-02-09T04:37:27.826Z,97910.94
2019-02-09T04:40:43.290Z,97909.92
2019-02-09T04:43:58.751Z,97907.09
2019-02-09T04:47:13.898Z,97933.88
2019-02-09T04:50:29.453Z,97906.97
2019-02-09T04:53:44.941Z,97904.67
2019-02-09T04:57:00.494Z,97890.70
2019-02-09T05:00:18.242Z,97886.69
2019-02-09T05:03:33.645Z,97892.34
2019-02-09T05:06:49.020Z,97899.91
2019-02-09T05:10:05.543Z,97903.70
2019-02-09T05:13:20.717Z,97913.37
2019-02-09T05:16:36.024Z,97911.91
2019-02-09T05:19:52.041Z,97917.49
2019-02-09T05:23:08.304Z,97928.21
2019-02-09T05:26:23.461Z,97928.77
2019-02-09T05:29:38.830Z,97936.80
2019-02-09T05:32:54.001Z,97942.16
2019-02-09T05:36:09.314Z,97945.88
2019-02-09T05:39:25.167Z,97960.61
2019-02-09T05:42:40.394Z,97954.14
2019-02-09T05:45:55.690Z,97956.05
2019-02-09T05:49:11.009Z,97960.98
2019-02-09T05:52:26.152Z,97959.05
2019-02-09T05:55:41.208Z,97958.30
2019-02-09T05:58:56.379Z,97955.72
2019-02-09T06:02:11.851Z,97959.06
2019-02-09T06:05:27.089Z,97970.70
2019-02-09T06:08:43.109Z,97971.97
2019-02-09T06:11:58.425Z,97977.27
2019-02-09T06:15:14.664Z,97989.61
2019-02-09T06:18:29.930Z,97985.89
2019-02-09T06:21:45.487Z,97980.53
2019-02-09T06:25:00.938Z,97990.59
2019-02-09T06:28:16.405Z,97990.53
2019-02-09T06:31:40.237Z,98003.84
2019-02-09T06:34:48.945Z,97998.48
2019-02-09T06:38:04.421Z,97995.41
2019-02-09T06:41:19.856Z,98003.16
2019-02-09T06:44:35.195Z,98013.52
2019-02-09T06:47:50.892Z,98014.23
2019-02-09T06:51:05.846Z,98010.94
2019-02-09T06:54:21.475Z,98006.39
2019-02-09T06:57:36.600Z,98022.52
2019-02-09T07:00:52.015Z,98023.52
2019-02-09T07:04:07.429Z,98024.78
2019-02-09T07:07:22.682Z,98016.24
2019-02-09T07:10:38.381Z,98024.52
2019-02-09T07:13:53.794Z,98027.07
2019-02-09T07:17:08.948Z,98026.76
2019-02-09T07:20:24.196Z,98031.98
2019-02-09T07:23:39.758Z,98049.70
2019-02-09T07:26:54.898Z,98053.27
2019-02-09T07:30:13.891Z,98059.12
2019-02-09T07:33:29.411Z,98062.91
2019-02-09T07:36:44.840Z,98066.75
2019-02-09T07:40:00.354Z,98064.48
2019-02-09T07:43:15.658Z,98066.33
2019-02-09T07:46:31.181Z,98069.60
2019-02-09T07:49:46.765Z,98076.53
2019-02-09T07:53:02.428Z,98082.75
2019-02-09T07:56:17.759Z,98084.52
2019-02-09T07:59:32.952Z,98103.63
2019-02-09T08:02:48.482Z,98111.45
2019-02-09T08:06:04.462Z,98107.48
2019-02-09T08:09:19.729Z,98110.63
2019-02-09T08:12:35.111Z,98121.09
2019-02-09T08:15:50.454Z,98118.37
2019-02-09T08:19:05.679Z,98124.89
2019-02-09T08:22:21.133Z,98127.89
2019-02-09T08:25:36.378Z,98136.92
2019-02-09T08:28:51.736Z,98148.56
2019-02-09T08:32:12.475Z,98154.59
2019-02-09T08:35:24.392Z,98156.41
2019-02-09T08:38:39.873Z,98166.27
2019-02-09T08:41:55.195Z,98178.19
2019-02-09T08:45:13.094Z,98185.80
2019-02-09T08:48:28.653Z,98184.42
2019-02-09T08:51:44.220Z,98175.94
2019-02-09T08:54:59.575Z,98184.59
2019-02-09T08:58:14.838Z,98193.09
2019-02-09T09:01:31.013Z,98195.94
2019-02-09T09:04:46.463Z,98188.31
2019-02-09T09:08:02.470Z,98190.38
2019-02-09T09:11:18.277Z,98188.61
2019-02-09T09:14:33.847Z,98184.84
2019-02-09T09:17:49.201Z,98174.41
2019-02-09T09:21:04.675Z,98184.91
2019-02-09T09:24:19.908Z,98176.14
2019-02-09T09:27:35.363Z,98180.35
2019-02-09T09:30:51.114Z,98184.20
2019-02-09T09:34:06.275Z,98199.66
2019-02-09T09:37:21.558Z,98187.23
2019-02-09T09:40:39.110Z,98203.14
2019-02-09T09:43:54.586Z,98196.72
2019-02-09T09:47:10.157Z,98210.67
2019-02-09T09:50:26.156Z,98196.70
2019-02-09T09:53:41.562Z,98202.69
2019-02-09T09:56:56.817Z,98202.07
2019-02-09T10:00:12.551Z,98227.86
2019-02-09T10:03:28.742Z,98202.92
2019-02-09T10:06:44.104Z,98216.78
2019-02-09T10:09:59.461Z,98232.55
2019-02-09T10:13:14.732Z,98234.23
2019-02-09T10:16:30.270Z,98233.25
2019-02-09T10:19:45.829Z,98238.61
2019-02-09T10:23:00.941Z,98248.03
2019-02-09T10:26:16.348Z,98245.88
2019-02-09T10:29:31.684Z,98226.70
2019-02-09T10:32:47.036Z,98230.72
2019-02-09T10:36:02.289Z,98241.27
2019-02-09T10:39:17.739Z,98239.53
2019-02-09T10:42:33.603Z,98231.98
2019-02-09T10:45:49.000Z,98239.89
2019-02-09T10:49:04.835Z,98238.45
2019-02-09T10:52:20.278Z,98261.17
2019-02-09T10:55:35.745Z,98292.66
2019-02-09T10:58:51.080Z,98299.78
2019-02-09T11:02:06.796Z,98306.23
2019-02-09T11:05:22.023Z,98299.56
2019-02-09T11:08:37.354Z,98287.91
2019-02-09T11:11:53.004Z,98292.27
2019-02-09T11:15:10.498Z,98309.36
2019-02-09T11:18:26.175Z,98299.03
2019-02-09T11:21:41.533Z,98296.38
2019-02-09T11:24:57.182Z,98288.50
2019-02-09T11:28:12.838Z,98277.36
2019-02-09T11:31:28.319Z,98272.33
2019-02-09T11:34:43.866Z,98290.61
2019-02-09T11:37:59.169Z,98282.88
2019-02-09T11:41:14.440Z,98277.97
2019-02-09T11:44:29.833Z,98274.33
2019-02-09T11:47:45.294Z,98262.37
2019-02-09T11:51:00.857Z,98249.00
2019-02-09T11:54:16.192Z,98261.09
2019-02-09T11:57:31.648Z,98299.55
2019-02-09T12:00:49.659Z,98275.64
2019-02-09T12:04:04.828Z,98272.42
2019-02-09T12:07:21.065Z,98258.29
2019-02-09T12:10:36.552Z,98279.72
2019-02-09T12:13:55.471Z,98266.25
2019-02-09T12:17:11.349Z,98259.84
2019-02-09T12:20:26.993Z,98269.98
2019-02-09T12:23:42.785Z,98275.64
2019-02-09T12:26:58.799Z,98273.30
2019-02-09T12:30:17.217Z,98269.10
2019-02-09T12:33:33.429Z,98276.34
2019-02-09T12:36:48.899Z,98267.45
2019-02-09T12:40:04.236Z,98281.30
2019-02-09T12:43:19.608Z,98282.08
2019-02-09T12:46:35.568Z,98262.05
2019-02-09T12:49:50.835Z,98257.10
2019-02-09T12:53:06.271Z,98252.56
2019-02-09T12:56:22.538Z,98236.94
2019-02-09T12:59:38.002Z,98232.96
2019-02-09T13:02:53.239Z,98234.84
2019-02-09T13:06:08.805Z,98235.38
2019-02-09T13:09:25.787Z,98233.48
2019-02-09T13:12:41.557Z,98229.11
2019-02-09T13:15:57.849Z,98231.68
2019-02-09T13:19:13.182Z,98221.94
2019-02-09T13:22:28.990Z,98216.56
2019-02-09T13:25:44.409Z,98228.77
2019-02-09T13:28:59.954Z,98243.30
2019-02-09T13:32:15.267Z,98238.73
2019-02-09T13:35:30.662Z,98238.38
2019-02-09T13:38:46.294Z,98248.15
2019-02-09T13:42:01.813Z,98242.94
2019-02-09T13:45:37.512Z,98244.84
2019-02-09T13:48:52.799Z,98252.28
2019-02-09T13:52:08.204Z,98268.42
2019-02-09T13:55:23.786Z,98277.30
2019-02-09T13:58:39.157Z,98281.18
2019-02-09T14:01:54.358Z,98278.30
2019-02-09T14:05:10.159Z,98281.02
2019-02-09T14:08:25.322Z,98288.26
2019-02-09T14:11:41.430Z,98283.48
2019-02-09T14:14:56.980Z,98284.19
2019-02-09T14:18:12.541Z,98291.44
2019-02-09T14:21:28.282Z,98281.95
2019-02-09T14:24:43.962Z,98283.48
2019-02-09T14:28:00.491Z,98273.18
2019-02-09T14:31:15.777Z,98277.63
2019-02-09T14:34:31.389Z,98288.20
2019-02-09T14:37:47.169Z,98295.95
2019-02-09T14:41:02.306Z,98294.77
2019-02-09T14:44:18.572Z,98299.25
2019-02-09T14:47:34.035Z,98298.78
2019-02-09T14:50:49.486Z,98305.79
2019-02-09T14:54:04.672Z,98304.91
2019-02-09T14:57:20.038Z,98306.59
2019-02-09T15:00:38.212Z,98320.84
2019-02-09T15:04:02.474Z,98302.02
2019-02-09T15:07:12.805Z,98319.67
2019-02-09T15:10:28.234Z,98314.03
2019-02-09T15:13:43.823Z,98320.22
2019-02-09T15:17:05.389Z,98323.39
2019-02-09T15:20:18.602Z,98321.70
2019-02-09T15:23:34.066Z,98320.03
2019-02-09T15:26:50.631Z,98321.56
2019-02-09T15:30:07.135Z,98320.16
2019-02-09T15:33:22.730Z,98337.80
2019-02-09T15:36:37.932Z,98325.34
2019-02-09T15:39:53.581Z,98340.63
2019-02-09T15:43:09.282Z,98364.09
2019-02-09T15:46:24.750Z,98381.05
2019-02-09T15:49:39.879Z,98380.22
2019-02-09T15:52:55.133Z,98371.70
2019-02-09T15:56:10.379Z,98394.30
2019-02-09T15:59:25.732Z,98386.03
2019-02-09T16:02:41.247Z,98344.45
2019-02-09T16:05:57.712Z,98350.62
2019-02-09T16:09:13.157Z,98361.97
2019-02-09T16:12:28.872Z,98358.58
2019-02-09T16:15:44.235Z,98358.86
2019-02-09T16:18:59.927Z,98359.41
2019-02-09T16:22:15.588Z,98354.42
2019-02-09T16:25:30.780Z,98358.66
2019-02-09T16:28:46.272Z,98361.45
2019-02-09T16:32:01.726Z,98368.25
2019-02-09T16:35:18.213Z,98367.89
2019-02-09T16:38:33.752Z,98369.17
2019-02-09T16:41:49.253Z,98376.08
2019-02-09T16:45:05.345Z,98374.06
2019-02-09T16:48:21.971Z,98383.89
2019-02-09T16:51:37.390Z,98385.55
2019-02-09T16:54:52.779Z,98386.58
2019-02-09T16:58:09.080Z,98393.17
2019-02-09T17:01:24.302Z,98392.69
2019-02-09T17:04:39.416Z,98400.59
2019-02-09T17:07:54.828Z,98406.20
2019-02-09T17:11:10.076Z,98409.80
2019-02-09T17:14:25.326Z,98410.29
2019-02-09T17:17:40.921Z,98409.28
2019-02-09T17:20:56.319Z,98408.00
2019-02-09T17:24:11.662Z,98407.22
2019-02-09T17:27:26.889Z,98408.11
2019-02-09T17:30:42.243Z,98408.50
2019-02-09T17:33:57.426Z,98413.74
2019-02-09T17:37:12.648Z,98419.98
2019-02-09T17:40:30.627Z,98421.02
2019-02-09T17:43:45.944Z,98412.58
2019-02-09T17:47:01.271Z,98424.84
2019-02-09T17:50:17.052Z,98419.73
2019-02-09T17:53:32.278Z,98412.86
2019-02-09T17:56:47.654Z,98405.70
2019-02-09T18:00:03.288Z,98413.85
2019-02-09T18:03:18.715Z,98415.79
2019-02-09T18:06:33.840Z,98409.28
2019-02-09T18:09:49.822Z,98407.08
2019-02-09T18:13:05.177Z,98409.91
2019-02-09T18:16:20.702Z,98413.61
2019-02-09T18:19:36.182Z,98412.08
2019-02-09T18:22:51.543Z,98412.34
2019-02-09T18:26:06.971Z,98401.85
2019-02-09T18:29:22.674Z,98412.70
2019-02-09T18:32:37.897Z,98407.23
2019-02-09T18:35:53.559Z,98413.35
2019-02-09T18:39:10.767Z,98411.06
2019-02-09T18:42:26.291Z,98409.79
2019-02-09T18:45:41.841Z,98416.66
2019-02-09T18:48:57.341Z,98415.13
2019-02-09T18:52:12.913Z,98422.79
2019-02-09T18:55:28.205Z,98426.37
2019-02-09T18:58:43.775Z,98423.93
2019-02-09T19:01:59.682Z,98421.13
2019-02-09T19:05:15.400Z,98423.67
2019-02-09T19:08:30.811Z,98427.12
2019-02-09T19:11:46.870Z,98427.27
2019-02-09T19:15:02.382Z,98421.88
2019-02-09T19:18:17.635Z,98421.77
2019-02-09T19:21:33.244Z,98425.20
2019-02-09T19:24:48.651Z,98411.55
2019-02-09T19:28:04.299Z,98406.70
2019-02-09T19:31:19.767Z,98404.80
2019-02-09T19:34:34.360Z,98406.85
2019-02-09T19:37:49.984Z,98422.80
2019-02-09T19:41:05.711Z,98414.97
2019-02-09T19:44:21.018Z,98422.52
2019-02-09T19:47:37.427Z,98428.15
2019-02-09T19:50:52.896Z,98431.20
2019-02-09T19:54:08.106Z,98431.59
2019-02-09T19:57:23.183Z,98432.08
2019-02-09T20:00:40.674Z,98434.00
2019-02-09T20:03:55.855Z,98429.67
2019-02-09T20:07:11.311Z,98427.77
2019-02-09T20:10:29.217Z,98421.27
2019-02-09T20:13:44.799Z,98423.94
2019-02-09T20:17:00.136Z,98426.73
2019-02-09T20:20:15.828Z,98433.25
2019-02-09T20:23:31.049Z,98421.52
2019-02-09T20:26:46.802Z,98427.62
2019-02-09T20:30:02.265Z,98425.31
2019-02-09T20:33:17.620Z,98419.97
2019-02-09T20:36:33.226Z,98408.63
2019-02-09T20:39:49.156Z,98413.84
2019-02-09T20:43:04.499Z,98422.38
2019-02-09T20:46:20.056Z,98417.03
2019-02-09T20:49:35.325Z,98412.45
2019-02-09T20:52:50.758Z,98407.67
2019-02-09T20:56:07.023Z,98407.42
2019-02-09T20:59:22.389Z,98400.06
2019-02-09T21:02:37.751Z,98404.13
2019-02-09T21:05:52.997Z,98397.90
2019-02-09T21:09:07.937Z,98398.39
2019-02-09T21:12:23.391Z,98390.74
2019-02-09T21:15:38.498Z,98391.91
2019-02-09T21:18:54.594Z,98387.59
2019-02-09T21:22:10.096Z,98374.83
2019-02-09T21:25:33.414Z,98380.67
2019-02-09T21:28:49.444Z,98377.37
2019-02-09T21:32:04.504Z,98384.25
2019-02-09T21:35:19.735Z,98378.77
2019-02-09T21:38:35.017Z,98381.44
2019-02-09T21:41:50.586Z,98381.45
2019-02-09T21:45:06.268Z,98373.41
2019-02-09T21:48:22.909Z,98376.35
2019-02-09T21:51:38.376Z,98370.62
2019-02-09T21:54:53.628Z,98369.48
2019-02-09T21:58:08.960Z,98374.97
2019-02-09T22:01:24.097Z,98372.52
2019-02-09T22:04:39.388Z,98371.75
2019-02-09T22:07:54.940Z,98371.26
2019-02-09T22:11:10.601Z,98375.08
2019-02-09T22:14:26.403Z,98373.53
2019-02-09T22:17:41.775Z,98360.00
2019-02-09T22:20:57.064Z,98359.78
2019-02-09T22:24:12.422Z,98356.95
2019-02-09T22:27:27.983Z,98361.30
2019-02-09T22:30:43.706Z,98359.75
2019-02-09T22:33:59.254Z,98356.81
2019-02-09T22:37:14.356Z,98348.16
2019-02-09T22:40:30.818Z,98345.47
2019-02-09T22:43:46.478Z,98344.72
2019-02-09T22:47:01.839Z,98343.44
2019-02-09T22:50:19.527Z,98340.14
2019-02-09T22:53:34.711Z,98334.63
2019-02-09T22:56:49.950Z,98342.67
2019-02-09T23:00:16.083Z,98341.16
2019-02-09T23:03:51.783Z,98335.80
2019-02-09T23:07:10.767Z,98326.34
2019-02-09T23:10:26.152Z,98321.36
2019-02-09T23:13:41.609Z,98320.73
2019-02-09T23:16:57.764Z,98303.62
2019-02-09T23:20:13.243Z,98295.47
2019-02-09T23:23:28.591Z,98294.84
2019-02-09T23:26:43.839Z,98278.66
2019-02-09T23:29:59.293Z,98275.84
2019-02-09T23:33:14.851Z,98265.66
2019-02-09T23:36:30.308Z,98273.56
2019-02-09T23:39:45.461Z,98271.79
2019-02-09T23:43:00.615Z,98266.95
2019-02-09T23:46:16.165Z,98262.34
2019-02-09T23:49:31.418Z,98255.97
2019-02-09T23:52:47.557Z,98252.92
2019-02-09T23:56:03.043Z,98242.70
2019-02-09T23:59:18.954Z,98219.38
